This demonstration page uses our WeatherBlox Daily Observations layout. Learn more.

41.55636, -103.73856

Hourly Observations for June 20, 2017

Temp ( °F °C ) Dew Point ( °F °C ) Humidity (%) Winds ( mph kmh ) Pressure ( in mb ) Visibility ( mi km ) Precip ( " mm )
12:53 am 00:53 Clear 61 16.1 50 10 67 67 NE 5 7 30.02 1017 10 16.0934 0 0
1:53 am 01:53 Clear 58 14.4 50 10 75 75 Calm 30.02 1017 10 16.0934 0 0
2:53 am 02:53 Clear 58 14.4 49 9.4 72 72 E 6 9 30 1016 10 16.0934 0 0
3:53 am 03:53 Clear 57 13.9 49 9.4 74 74 ENE 3 6 29.98 1015 10 16.0934 0 0
4:53 am 04:53 Clear 57 13.9 48 8.9 72 72 ESE 6 9 29.96 1015 10 16.0934 0 0
5:53 am 05:53 Sunny 57 13.9 49 9.4 74 74 E 6 9 29.96 1015 10 16.0934 0 0
6:53 am 06:53 Sunny 63 17.2 49 9.4 60 60 ESE 5 7 29.97 1015 10 16.0934 0 0
7:53 am 07:53 Sunny 68 20 48 8.9 49 49 ESE 7 11 29.97 1015 10 16.0934 0 0
8:53 am 08:53 Sunny 71 21.7 50 10 47 47 VRB 3 6 29.97 1015 10 16.0934 0 0
9:53 am 09:53 Sunny 75 23.9 50 10 41 41 Calm 29.95 1014 10 16.0934 0 0
10:53 am 10:53 Sunny 79 26.1 49 9.4 35 35 WNW 5 7 29.94 1014 10 16.0934 0 0
11:53 am 11:53 Sunny 82 27.8 52 11.1 35 35 VRB 5 7 29.92 1013 10 16.0934 0 0
12:53 pm 12:53 Sunny 85 29.4 50 10 30 30 Calm 29.9 1013 10 16.0934 0 0
1:53 pm 13:53 Sunny 90 32.2 51 10.6 26 26 VRB 3 6 29.88 1012 10 16.0934 0 0
2:53 pm 14:53 Sunny 91 32.8 48 8.9 23 23 VRB 3 6 29.85 1011 10 16.0934 0 0
3:53 pm 15:53 Sunny 94 34.4 44 6.7 18 18 undefined N/A 29.83 1010 10 16.0934 0 0
4:53 pm 16:53 Sunny 95 35 45 7.2 18 18 NNW 5 7 29.8 1009 10 16.0934 0 0
5:53 pm 17:53 Sunny 91 32.8 44 6.7 20 20 SE 7 11 29.79 1009 10 16.0934 0 0
6:53 pm 18:53 Sunny 90 32.2 47 8.3 23 23 E 8 13 29.76 1008 10 16.0934 0 0
7:53 pm 19:53 Sunny 84 28.9 51 10.6 32 32 SE 7 11 29.76 1008 10 16.0934 0 0
8:53 pm 20:53 Clear 81 27.2 52 11.1 37 37 SSW 6 9 29.8 1009 10 16.0934 0 0
9:53 pm 21:53 Clear 75 23.9 54 12.2 48 48 Calm 29.8 1009 10 16.0934 0 0
10:53 pm 22:53 Clear 73 22.8 52 11.1 48 48 ESE 7 11 29.78 1008 10 16.0934 0 0
11:53 pm 23:53 Clear 72 22.2 50 10 46 46 SE 5 7 29.77 1008 10 16.0934 0 0

Powered by AerisWeather